Terminal Aerodrome Forecast
Issued by NWS

Home | Current Version | Previous Version | Text Only | Print | Product List | Glossary Off
Versions: 1 2 3 4 5 6 7 8 9 10 11 12 13

388
FTUS43 KFGF 181557 AAA
TAFBJI
TAF AMD
KBJI 181557Z 1816/1912 24018G25KT P6SM BKN250
     FM181700 27020G28KT P6SM BKN250
     FM190100 27011KT P6SM SKC
     FM190200 27011KT P6SM SKC WS020/28040KT
     FM190600 26007KT P6SM SKC WS020/29040KT
     FM190700 26006KT P6SM SKC=

USA.gov is the U.S. government's official web portal to all federal, state and local government web resources and services.